This is the latest recevied weather packets stored in our database for station/object EA1JAO-11. If no packets are shown the sender has not sent any weather packets the latest 10 day(s).
| Time | Temp. | Humidity | Pressure | Rain* | Wind** | Luminosity | Snow |
|---|---|---|---|---|---|---|---|
| 1777403173 | 16.11° C | 83% | 1011.1 hPa | - | - | - | - |
| 1777401374 | 16.11° C | 81% | 1010.9 hPa | - | - | - | - |
| 1777399572 | 16.67° C | 80% | 1010.8 hPa | - | - | - | - |
| 1777397775 | 17.78° C | 76% | 1011.1 hPa | - | - | - | - |
| 1777395972 | 21.11° C | 61% | 1010.7 hPa | - | - | - | - |
| 1777394172 | 23.33° C | 57% | 1011.1 hPa | - | - | - | - |
| 1777392371 | 21.11° C | 63% | 1010.9 hPa | - | - | - | - |
| 1777388772 | 22.22° C | 59% | 1011.5 hPa | - | - | - | - |
| 1777386972 | 20° C | 69% | 1011.6 hPa | - | - | - | - |
| 1777385172 | 22.22° C | 62% | 1011.6 hPa | - | - | - | - |
| 1777383372 | 23.33° C | 54% | 1011.7 hPa | - | - | - | - |
| 1777381572 | 22.22° C | 58% | 1012.2 hPa | - | - | - | - |
| 1777379773 | 20.56° C | 67% | 1012.5 hPa | - | - | - | - |
| 1777378542 | 19.44° C | 70% | 1012.7 hPa | - | - | - | - |
| 1777376744 | 17.78° C | 78% | 1012.9 hPa | - | - | - | - |
| 1777374940 | 18.33° C | 75% | 1013.2 hPa | - | - | - | - |
| 1777373140 | 19.44° C | 74% | 1013.5 hPa | - | - | - | - |
| 1777371340 | 18.33° C | 76% | 1013.5 hPa | - | - | - | - |
| 1777367740 | 17.22° C | 83% | 1013.3 hPa | - | - | - | - |
| 1777365940 | 16.67° C | 85% | 1013.7 hPa | - | - | - | - |
| 1777364140 | 16.11° C | 89% | 1013.9 hPa | - | - | - | - |
| 1777364100 | 16.11° C | 89% | 1013.9 hPa | - | - | - | - |
| 1777363572 | 16.11° C | 88% | 1013.9 hPa | - | - | - | - |
| 1777361772 | 15.56° C | 91% | 1014 hPa | - | - | - | - |
| 1777359972 | 15.56° C | 89% | 1014.1 hPa | - | - | - | - |
* Rain since midnight (hover to see other rain measurements)
** Current wind speed in m/s (hover to see current wind gust speed)